Holly Grove, Mississippi
Current Conditions -  °F | °C
As of 5:53 AM on Friday 28 Nov 2014 (Local Time) from KGWO Reporting Station
Clear Clear  
Wind Chill: 32°   Ceiling: Unl
Heat Index: 32°   Visibility: 10mi
Dew Point: 26°   Wind: 0mph
Humidity: 79%   Direction: NA
Pressure: 30.44"   Gusts: NA
Location:  33.3926°N, 90.1584°W
Report Text: KGWO 281153Z AUTO 00000KT 10SM CLR 00/M03 A3044 RMK AO2 SLP307 T00001033 10011 21017 55001 TSNO
Loading
Personal Weather Stations






























Interactive Weather Map New forecast layout! Learn more

10-Day Weather Forecast

Advertisements
Track Severe Weather on mobile